Time;durP1;ratioP1;P1;durP2;ratioP2;P2;SDS_P1;SDS_P2;PMS_P1;PMS_P2;Temp;Humidity;BMP_temperature;BMP_pressure;BME280_temperature;BME280_humidity;BME280_pressure;Samples;Min_cycle;Max_cycle;Signal;HPM_P1;HPM_P2
2022/09/02 00:00:43;;;;;;;4.22;3.00;;;;;;;13.77;96.75;96366.34;5036740;28;20204;-69
2022/09/02 00:03:10;;;;;;;3.85;2.70;;;;;;;13.58;97.65;96369.66;5036743;28;20244;-70
2022/09/02 00:05:37;;;;;;;6.07;3.17;;;;;;;13.58;96.89;96361.69;5035241;28;20236;-70
2022/09/02 00:08:03;;;;;;;3.33;2.90;;;;;;;13.61;96.55;96358.69;5038505;28;20209;-70
2022/09/02 00:10:30;;;;;;;4.53;3.03;;;;;;;13.63;97.45;96356.66;5037708;28;20225;-70
2022/09/02 00:12:56;;;;;;;6.18;3.17;;;;;;;13.71;96.33;96349.38;5036593;28;20216;-70
2022/09/02 00:15:23;;;;;;;3.75;2.80;;;;;;;13.58;95.92;96348.47;5037499;28;20225;-70
2022/09/02 00:17:51;;;;;;;5.78;3.22;;;;;;;13.39;99.24;96349.97;5038135;28;20205;-69
2022/09/02 00:20:18;;;;;;;6.95;3.13;;;;;;;13.41;98.27;96350.56;5037961;28;20204;-70
2022/09/02 00:22:44;;;;;;;3.85;2.53;;;;;;;13.34;98.25;96350.72;5037276;28;20297;-70
2022/09/02 00:25:12;;;;;;;5.45;3.22;;;;;;;13.46;98.41;96340.22;5037883;28;20201;-70
2022/09/02 00:27:38;;;;;;;3.80;2.53;;;;;;;13.45;95.73;96346.56;5037955;28;20209;-70
2022/09/02 00:30:06;;;;;;;5.53;2.40;;;;;;;13.55;95.64;96339.06;5036982;28;20685;-70
2022/09/02 00:32:33;;;;;;;5.55;3.13;;;;;;;13.47;97.33;96347.16;5037270;28;20208;-70
2022/09/02 00:35:01;;;;;;;5.35;3.03;;;;;;;13.57;97.13;96337.06;5037920;28;20665;-70
2022/09/02 00:37:28;;;;;;;4.55;2.95;;;;;;;13.44;97.47;96331.69;5037211;28;20209;-71
2022/09/02 00:39:54;;;;;;;5.15;2.85;;;;;;;13.47;97.86;96331.28;5037313;28;20205;-70
2022/09/02 00:42:22;;;;;;;5.18;3.63;;;;;;;13.52;97.62;96328.06;5037569;28;20209;-70
2022/09/02 00:44:49;;;;;;;4.28;2.80;;;;;;;13.54;97.42;96337.47;5037408;28;20205;-70
2022/09/02 00:47:16;;;;;;;3.85;2.95;;;;;;;13.48;97.43;96332.13;5036924;28;20229;-70
2022/09/02 00:49:46;;;;;;;4.85;3.17;;;;;;;13.31;99.41;96332.56;5037784;28;20220;-70
2022/09/02 00:52:18;;;;;;;6.10;3.72;;;;;;;13.23;100.00;96330.06;5036835;28;20225;-70
2022/09/02 00:54:48;;;;;;;4.32;2.97;;;;;;;13.35;99.22;96334.63;5036435;28;21153;-70
2022/09/02 00:57:18;;;;;;;5.03;3.30;;;;;;;13.25;100.00;96334.16;5036914;28;20244;-70
2022/09/02 00:59:51;;;;;;;5.82;3.40;;;;;;;13.29;100.00;96331.94;5036954;28;20247;-70
2022/09/02 01:02:18;;;;;;;6.53;3.35;;;;;;;13.31;99.37;96329.94;5035295;28;20208;-71
2022/09/02 01:04:45;;;;;;;4.15;2.72;;;;;;;13.24;98.05;96323.75;5034413;28;21153;-70
2022/09/02 01:07:13;;;;;;;4.90;2.92;;;;;;;13.17;98.99;96328.19;5036139;28;20221;-70
2022/09/02 01:09:41;;;;;;;4.80;3.15;;;;;;;13.28;97.62;96330.31;5036776;28;20202;-70
2022/09/02 01:12:11;;;;;;;5.97;3.00;;;;;;;13.36;97.95;96328.34;5035603;28;20220;-70
2022/09/02 01:14:37;;;;;;;4.47;2.88;;;;;;;13.20;97.11;96322.50;5037065;28;20241;-70
2022/09/02 01:17:05;;;;;;;3.95;2.97;;;;;;;13.20;96.10;96333.09;5036413;28;20225;-70
2022/09/02 01:19:36;;;;;;;4.68;2.85;;;;;;;13.27;96.35;96323.38;5037043;28;20216;-71
2022/09/02 01:22:14;;;;;;;5.90;3.35;;;;;;;13.23;100.00;96325.59;5036971;28;20212;-70
2022/09/02 01:24:41;;;;;;;5.80;3.65;;;;;;;13.22;98.22;96325.78;5036885;28;20204;-70
2022/09/02 01:27:07;;;;;;;3.83;2.95;;;;;;;13.16;99.18;96319.44;5036558;28;20231;-71
2022/09/02 01:29:34;;;;;;;5.65;3.55;;;;;;;13.18;99.59;96324.53;5037011;28;20212;-70
2022/09/02 01:32:01;;;;;;;4.20;3.17;;;;;;;13.26;97.86;96325.19;5036737;28;20221;-69
2022/09/02 01:34:28;;;;;;;4.82;2.92;;;;;;;13.19;97.38;96323.53;5036109;28;20204;-70
2022/09/02 01:36:54;;;;;;;5.80;3.80;;;;;;;13.14;99.42;96329.38;5036388;28;20221;-70
2022/09/02 01:39:22;;;;;;;3.63;2.85;;;;;;;13.35;98.35;96317.94;5036809;28;20208;-70
2022/09/02 01:41:48;;;;;;;4.97;3.30;;;;;;;13.21;98.05;96324.13;5035536;28;20205;-69
2022/09/02 01:44:16;;;;;;;5.63;3.30;;;;;;;13.26;97.49;96329.69;5035837;28;20205;-70
2022/09/02 01:46:43;;;;;;;6.00;3.10;;;;;;;13.16;97.73;96322.09;5036317;28;20225;-70
2022/09/02 01:49:10;;;;;;;5.35;3.80;;;;;;;13.13;98.20;96321.63;5036315;28;20216;-69
2022/09/02 01:51:37;;;;;;;4.25;3.15;;;;;;;13.16;97.36;96318.59;5036316;28;20229;-70
2022/09/02 01:54:04;;;;;;;4.45;3.22;;;;;;;13.15;97.71;96322.25;5035985;28;20205;-70
2022/09/02 01:56:32;;;;;;;6.63;3.25;;;;;;;13.10;98.14;96317.53;5036317;28;20258;-70
2022/09/02 01:58:58;;;;;;;3.72;3.05;;;;;;;13.02;96.34;96319.50;5034816;28;20572;-70
2022/09/02 02:01:25;;;;;;;5.22;3.45;;;;;;;12.92;98.28;96317.19;5036872;28;20227;-70
2022/09/02 02:03:51;;;;;;;5.88;3.45;;;;;;;12.95;97.29;96319.44;5033332;28;20197;-70
2022/09/02 02:06:18;;;;;;;5.43;3.30;;;;;;;12.91;98.52;96318.19;5035969;28;20229;-69
2022/09/02 02:08:45;;;;;;;7.15;3.58;;;;;;;12.76;100.00;96313.13;5035914;28;20233;-69
2022/09/02 02:11:12;;;;;;;4.97;3.38;;;;;;;12.81;99.32;96316.81;5036658;28;20224;-71
2022/09/02 02:13:40;;;;;;;5.32;3.78;;;;;;;12.90;99.57;96318.38;5034901;28;20209;-70
2022/09/02 02:16:06;;;;;;;6.43;4.05;;;;;;;12.86;99.33;96315.28;5036387;28;20225;-70
2022/09/02 02:18:33;;;;;;;7.07;3.90;;;;;;;12.95;99.56;96316.78;5036113;28;20205;-71
2022/09/02 02:21:00;;;;;;;5.93;4.10;;;;;;;13.02;98.93;96314.19;5036585;28;20212;-70
2022/09/02 02:23:26;;;;;;;6.43;3.60;;;;;;;12.99;98.32;96314.59;5038643;28;20583;-70
2022/09/02 02:25:53;;;;;;;4.65;3.63;;;;;;;12.88;97.71;96313.28;5040137;28;20247;-70
2022/09/02 02:28:19;;;;;;;5.70;3.70;;;;;;;12.96;97.92;96310.50;5040266;28;20216;-70
2022/09/02 02:30:47;;;;;;;4.43;3.35;;;;;;;12.96;98.30;96312.34;5039838;28;21140;-69
2022/09/02 02:33:14;;;;;;;5.88;3.67;;;;;;;12.92;99.51;96313.72;5039527;28;20212;-70
2022/09/02 02:35:40;;;;;;;5.35;3.42;;;;;;;12.84;98.43;96305.88;5036926;28;20225;-70
2022/09/02 02:38:09;;;;;;;5.25;3.92;;;;;;;12.80;99.36;96304.59;5040016;28;20213;-70
2022/09/02 02:40:36;;;;;;;6.10;4.20;;;;;;;12.78;98.95;96301.34;5039992;28;20201;-70
2022/09/02 02:43:03;;;;;;;5.47;4.00;;;;;;;12.75;98.34;96307.00;5039413;28;20201;-70
2022/09/02 02:45:29;;;;;;;5.78;3.90;;;;;;;12.76;97.15;96298.88;5039408;28;20236;-70
2022/09/02 02:47:57;;;;;;;6.15;3.97;;;;;;;12.85;98.42;96299.56;5039459;28;20208;-70
2022/09/02 02:50:25;;;;;;;6.10;3.90;;;;;;;12.75;98.94;96296.41;5039773;28;20209;-70
2022/09/02 02:52:53;;;;;;;8.60;4.15;;;;;;;12.68;98.16;96295.53;5038631;28;20225;-70
2022/09/02 02:55:22;;;;;;;5.10;3.20;;;;;;;12.67;96.57;96293.91;5039540;28;20607;-70
2022/09/02 02:57:49;;;;;;;5.82;3.97;;;;;;;12.75;97.93;96301.72;5039744;28;20262;-70
2022/09/02 03:00:18;;;;;;;5.43;3.90;;;;;;;12.80;98.32;96291.38;5039610;28;20216;-70
2022/09/02 03:02:44;;;;;;;5.45;3.55;;;;;;;12.76;97.28;96289.31;5039021;28;20200;-70
2022/09/02 03:05:14;;;;;;;6.22;3.88;;;;;;;12.73;99.68;96297.59;5037207;28;20780;-70
2022/09/02 03:07:41;;;;;;;4.63;3.22;;;;;;;12.57;99.74;96298.69;5039141;28;20197;-69
2022/09/02 03:10:10;;;;;;;8.05;4.15;;;;;;;12.65;100.00;96289.81;5039330;28;20205;-71
2022/09/02 03:12:38;;;;;;;6.15;4.13;;;;;;;12.55;100.00;96289.28;5038324;28;20228;-71
2022/09/02 03:15:06;;;;;;;7.72;4.07;;;;;;;12.62;100.00;96296.28;5039272;28;20291;-69
2022/09/02 03:17:33;;;;;;;6.05;3.67;;;;;;;12.54;97.38;96288.50;5038908;28;20319;-70
2022/09/02 03:19:59;;;;;;;6.80;3.80;;;;;;;12.56;98.74;96291.75;5039826;28;20205;-70
2022/09/02 03:22:27;;;;;;;5.68;3.45;;;;;;;12.65;98.82;96301.19;5038704;28;21161;-70
2022/09/02 03:24:54;;;;;;;5.47;3.55;;;;;;;12.44;97.71;96290.59;5039355;28;20208;-70
2022/09/02 03:27:20;;;;;;;5.60;3.67;;;;;;;12.44;99.70;96293.25;5038969;28;20228;-69
2022/09/02 03:29:47;;;;;;;5.22;3.70;;;;;;;12.43;99.97;96286.31;5039456;28;20212;-70
2022/09/02 03:32:13;;;;;;;4.85;3.28;;;;;;;12.37;97.84;96286.25;5038901;28;20229;-70
2022/09/02 03:34:40;;;;;;;4.22;3.15;;;;;;;12.43;96.57;96285.50;5037837;28;20205;-70
2022/09/02 03:37:07;;;;;;;7.40;3.47;;;;;;;12.31;96.12;96287.81;5039343;28;20221;-70
2022/09/02 03:39:35;;;;;;;6.05;3.00;;;;;;;12.32;95.33;96289.47;5039317;28;20205;-70
2022/09/02 03:42:01;;;;;;;5.45;3.35;;;;;;;12.28;96.46;96295.28;5038706;28;20267;-70
2022/09/02 03:44:28;;;;;;;6.23;3.77;;;;;;;12.27;95.81;96281.28;5038509;28;20213;-70
2022/09/02 03:46:54;;;;;;;4.77;3.27;;;;;;;12.13;97.01;96280.47;5038223;28;20217;-70
2022/09/02 03:49:21;;;;;;;4.00;3.10;;;;;;;12.07;97.10;96282.03;5038821;28;20236;-70
2022/09/02 03:51:47;;;;;;;5.68;3.20;;;;;;;12.04;96.30;96279.78;5038344;28;20248;-70
2022/09/02 03:54:14;;;;;;;5.07;3.40;;;;;;;12.06;98.10;96279.59;5037962;28;20205;-69
2022/09/02 03:56:42;;;;;;;4.15;3.00;;;;;;;12.06;97.69;96276.97;5037912;28;20313;-70
2022/09/02 03:59:08;;;;;;;4.37;3.00;;;;;;;12.00;98.41;96273.22;5038927;28;20213;-69
2022/09/02 04:01:36;;;;;;;5.18;3.42;;;;;;;12.03;99.81;96274.66;5038154;28;20197;-69
2022/09/02 04:04:03;;;;;;;6.77;3.97;;;;;;;12.01;99.46;96268.78;5036062;28;20581;-70
2022/09/02 04:06:29;;;;;;;6.30;4.00;;;;;;;12.01;99.20;96268.78;5038332;28;20839;-70
2022/09/02 04:08:56;;;;;;;5.13;3.60;;;;;;;11.92;97.80;96264.59;5038967;28;20835;-70
2022/09/02 04:11:23;;;;;;;5.22;3.90;;;;;;;11.83;99.16;96265.69;5038245;28;20213;-69
2022/09/02 04:13:53;;;;;;;5.33;3.30;;;;;;;12.00;96.84;96259.19;5037089;28;20205;-70
2022/09/02 04:16:21;;;;;;;5.07;3.70;;;;;;;11.97;99.02;96256.94;5038327;28;20225;-70
2022/09/02 04:18:48;;;;;;;5.80;3.85;;;;;;;11.96;98.78;96263.22;5038047;28;20216;-69
2022/09/02 04:21:14;;;;;;;5.45;3.72;;;;;;;11.90;98.71;96264.78;5038211;28;20205;-70
2022/09/02 04:23:42;;;;;;;6.83;3.70;;;;;;;11.83;100.00;96265.69;5037362;28;21149;-70
2022/09/02 04:26:10;;;;;;;8.97;3.33;;;;;;;11.98;98.81;96259.38;5038241;28;20730;-71
2022/09/02 04:28:37;;;;;;;6.07;3.75;;;;;;;11.97;98.91;96256.94;5037450;28;20661;-69
2022/09/02 04:31:06;;;;;;;6.93;3.80;;;;;;;11.99;96.99;96262.84;5037955;28;20198;-70
2022/09/02 04:33:33;;;;;;;4.93;3.77;;;;;;;11.92;99.24;96262.75;5037531;28;20228;-69
2022/09/02 04:36:00;;;;;;;6.93;3.50;;;;;;;11.94;97.30;96262.56;5038233;28;20225;-70
2022/09/02 04:38:27;;;;;;;7.10;4.20;;;;;;;11.88;99.27;96268.59;5037664;28;20208;-72
2022/09/02 04:40:54;;;;;;;7.87;4.33;;;;;;;11.92;99.13;96269.88;5038109;28;20201;-72
2022/09/02 04:43:20;;;;;;;7.87;4.03;;;;;;;11.91;98.42;96270.88;5036866;28;21123;-72
2022/09/02 04:45:47;;;;;;;10.77;4.30;;;;;;;11.75;100.00;96271.88;5037796;28;20236;-72
2022/09/02 04:48:15;;;;;;;5.20;3.67;;;;;;;11.99;99.55;96268.97;5037554;28;20209;-72
2022/09/02 04:50:42;;;;;;;8.93;3.80;;;;;;;11.88;98.30;96264.13;5037787;28;20590;-73
2022/09/02 04:53:09;;;;;;;5.87;4.10;;;;;;;11.86;99.28;96270.59;5036622;28;20257;-71
2022/09/02 04:55:39;;;;;;;7.77;4.27;;;;;;;11.96;99.48;96265.84;5037295;28;20227;-72
2022/09/02 04:58:05;;;;;;;7.30;4.50;;;;;;;11.95;100.00;96261.56;5037265;28;20201;-71
2022/09/02 05:00:32;;;;;;;6.27;4.23;;;;;;;11.94;100.00;96265.22;5036759;28;20569;-72
2022/09/02 05:02:58;;;;;;;6.13;4.30;;;;;;;12.04;100.00;96263.09;5036872;28;20209;-72
2022/09/02 05:05:26;;;;;;;6.60;4.47;;;;;;;12.12;100.00;96269.09;5034284;28;20635;-71
2022/09/02 05:07:55;;;;;;;7.83;4.33;;;;;;;12.09;100.00;96271.28;5036717;28;20197;-72
2022/09/02 05:10:22;;;;;;;9.13;4.50;;;;;;;12.18;100.00;96271.81;5037448;28;20213;-72
2022/09/02 05:12:48;;;;;;;7.10;4.57;;;;;;;12.15;100.00;96271.38;5036859;28;20247;-71
2022/09/02 05:15:16;;;;;;;8.00;4.50;;;;;;;12.17;100.00;96267.53;5037100;28;20292;-71
2022/09/02 05:17:42;;;;;;;5.97;4.23;;;;;;;12.34;100.00;96266.31;5035829;28;20200;-73
2022/09/02 05:20:10;;;;;;;6.72;4.53;;;;;;;12.43;100.00;96270.47;5036079;28;20209;-71
2022/09/02 05:22:38;;;;;;;6.90;4.43;;;;;;;12.54;100.00;96269.19;5036718;28;20201;-72
2022/09/02 05:25:07;;;;;;;9.20;4.50;;;;;;;12.50;100.00;96274.00;5036635;28;20204;-72
2022/09/02 05:27:34;;;;;;;12.80;5.63;;;;;;;12.47;100.00;96270.91;5037141;28;20205;-74
2022/09/02 05:30:00;;;;;;;8.73;4.90;;;;;;;12.61;100.00;96277.97;5036632;28;20205;-72
2022/09/02 05:32:28;;;;;;;7.82;4.85;;;;;;;12.65;100.00;96272.09;5036179;28;20224;-73
2022/09/02 05:34:54;;;;;;;8.20;5.13;;;;;;;12.76;100.00;96269.78;5036202;28;20308;-73
2022/09/02 05:37:21;;;;;;;7.70;4.88;;;;;;;12.79;100.00;96269.41;5036941;28;20228;-72
2022/09/02 05:39:49;;;;;;;10.57;5.03;;;;;;;13.00;100.00;96268.63;5036430;28;20208;-73
2022/09/02 05:42:16;;;;;;;10.10;5.85;;;;;;;12.87;100.00;96273.81;5036356;28;20201;-72
2022/09/02 05:44:43;;;;;;;7.05;4.57;;;;;;;12.99;100.00;96272.25;5036894;28;20205;-72
2022/09/02 05:47:11;;;;;;;8.88;5.32;;;;;;;13.10;100.00;96277.06;5036805;28;20229;-71
2022/09/02 05:49:38;;;;;;;7.32;5.30;;;;;;;13.13;100.00;96279.31;5035694;28;20216;-72
2022/09/02 05:52:08;;;;;;;7.38;4.53;;;;;;;13.00;100.00;96276.56;5036642;28;20224;-71
2022/09/02 05:54:37;;;;;;;8.88;4.93;;;;;;;13.23;100.00;96279.78;5036495;28;20295;-73
2022/09/02 05:57:08;;;;;;;8.10;5.03;;;;;;;13.42;100.00;96270.16;5031999;28;20247;-73
2022/09/02 05:59:37;;;;;;;7.53;4.60;;;;;;;13.42;100.00;96270.16;5034788;28;20204;-72
2022/09/02 06:02:04;;;;;;;8.80;5.10;;;;;;;13.50;100.00;96271.84;5035155;28;20208;-72
2022/09/02 06:04:30;;;;;;;8.43;5.20;;;;;;;13.59;100.00;96274.16;5036941;28;20213;-72
2022/09/02 06:06:57;;;;;;;11.73;5.03;;;;;;;13.54;100.00;96273.09;5034401;28;20232;-72
2022/09/02 06:09:24;;;;;;;9.52;4.97;;;;;;;13.54;100.00;96273.09;5035629;28;20206;-72
2022/09/02 06:11:52;;;;;;;8.30;5.28;;;;;;;13.74;100.00;96264.25;5033125;28;20223;-70
2022/09/02 06:14:23;;;;;;;6.80;5.05;;;;;;;13.83;100.00;96268.38;5035837;28;20209;-70
2022/09/02 06:16:51;;;;;;;6.90;4.88;;;;;;;13.94;100.00;96267.81;5035295;28;20294;-71
2022/09/02 06:19:18;;;;;;;8.93;4.57;;;;;;;13.91;100.00;96265.56;5034165;28;20205;-70
2022/09/02 06:21:45;;;;;;;9.05;4.90;;;;;;;14.02;100.00;96270.31;5032254;28;20197;-70
2022/09/02 06:24:12;;;;;;;6.40;4.57;;;;;;;14.04;100.00;96274.38;5033869;28;20544;-70
2022/09/02 06:26:40;;;;;;;7.10;4.35;;;;;;;14.23;100.00;96278.16;5034615;28;20229;-70
2022/09/02 06:29:09;;;;;;;9.50;5.25;;;;;;;14.34;100.00;96267.81;5035182;28;20197;-70
2022/09/02 06:31:37;;;;;;;7.32;4.68;;;;;;;14.38;100.00;96269.03;5033843;28;20981;-71
2022/09/02 06:34:04;;;;;;;7.60;4.75;;;;;;;14.43;100.00;96273.75;5034432;28;20225;-70
2022/09/02 06:36:31;;;;;;;7.47;4.60;;;;;;;14.45;100.00;96272.53;5036290;28;20603;-71
2022/09/02 06:38:59;;;;;;;8.02;4.80;;;;;;;14.58;100.00;96258.50;5035480;28;20220;-71
2022/09/02 06:41:28;;;;;;;7.68;4.40;;;;;;;14.65;100.00;96271.56;5035975;28;20209;-70
2022/09/02 06:43:56;;;;;;;6.10;4.43;;;;;;;14.87;100.00;96266.94;5034893;28;20768;-71
2022/09/02 06:46:25;;;;;;;5.85;3.97;;;;;;;15.11;100.00;96266.31;5033788;28;20229;-70
2022/09/02 06:48:53;;;;;;;8.07;4.18;;;;;;;15.13;99.90;96265.09;5035096;28;20216;-70
2022/09/02 06:51:20;;;;;;;6.68;4.32;;;;;;;15.08;98.86;96262.22;5036124;28;20381;-70
2022/09/02 06:53:47;;;;;;;6.68;4.30;;;;;;;15.12;98.36;96263.47;5034070;28;20728;-72
2022/09/02 06:56:14;;;;;;;6.18;4.35;;;;;;;15.18;96.99;96270.59;5035793;28;20221;-70
2022/09/02 06:58:40;;;;;;;9.18;4.18;;;;;;;15.22;95.38;96279.81;5034119;28;20622;-71
2022/09/02 07:01:07;;;;;;;5.80;4.00;;;;;;;15.30;96.53;96274.31;5036165;28;20420;-71
2022/09/02 07:06:20;;;;;;;5.75;3.92;;;;;;;15.10;96.67;96270.81;5033710;28;20813;-70
2022/09/02 07:08:46;;;;;;;9.93;3.90;;;;;;;15.20;96.00;96271.22;5035074;28;20211;-70
2022/09/02 07:11:16;;;;;;;5.30;3.85;;;;;;;15.42;97.37;96264.72;5039267;28;20752;-70
2022/09/02 07:13:43;;;;;;;5.70;4.03;;;;;;;15.38;94.73;96274.13;5037431;28;20603;-71
2022/09/02 07:16:09;;;;;;;6.63;3.85;;;;;;;15.51;93.76;96268.78;5039554;28;20244;-71
2022/09/02 07:18:36;;;;;;;7.88;4.20;;;;;;;15.64;96.12;96269.56;5038793;28;20216;-70
2022/09/02 07:21:03;;;;;;;6.65;4.05;;;;;;;15.67;96.67;96263.03;5037060;28;20362;-70
2022/09/02 07:23:31;;;;;;;5.95;3.42;;;;;;;15.75;96.08;96257.50;5036844;28;21024;-70
2022/09/02 07:25:57;;;;;;;4.82;3.47;;;;;;;15.73;96.18;96267.53;5036964;28;20225;-70
2022/09/02 07:28:25;;;;;;;7.05;4.32;;;;;;;15.86;95.41;96263.81;5037291;28;20204;-71
2022/09/02 07:30:54;;;;;;;9.60;3.90;;;;;;;15.81;95.45;96262.81;5038371;28;20740;-71
2022/09/02 07:33:21;;;;;;;5.10;3.80;;;;;;;15.79;95.19;96262.19;5038202;28;21341;-70
2022/09/02 07:35:49;;;;;;;4.97;3.47;;;;;;;15.91;92.55;96265.81;5037681;28;20225;-70
2022/09/02 07:38:16;;;;;;;5.32;3.70;;;;;;;15.95;93.31;96267.88;5032642;28;20374;-70
2022/09/02 07:40:45;;;;;;;4.90;3.35;;;;;;;16.21;93.79;96261.66;5037719;28;20300;-70
2022/09/02 07:43:12;;;;;;;5.57;3.50;;;;;;;16.10;92.42;96260.47;5037753;28;20271;-70
2022/09/02 07:45:42;;;;;;;7.13;3.60;;;;;;;16.29;96.47;96259.59;5037529;28;20221;-70
2022/09/02 07:48:08;;;;;;;5.10;3.70;;;;;;;16.29;90.30;96264.91;5036016;28;20209;-70
2022/09/02 07:50:37;;;;;;;4.20;3.40;;;;;;;16.52;92.10;96257.22;5036627;28;20681;-71
2022/09/02 07:53:05;;;;;;;4.97;3.38;;;;;;;16.36;91.32;96255.06;5037490;28;20225;-71
2022/09/02 07:55:33;;;;;;;4.28;3.15;;;;;;;16.60;89.90;96249.81;5037384;28;20235;-71
2022/09/02 07:58:03;;;;;;;6.70;3.58;;;;;;;16.80;90.76;96253.19;5037494;28;20459;-67
2022/09/02 08:00:30;;;;;;;5.35;3.22;;;;;;;16.93;90.61;96253.09;5037416;28;20576;-69
2022/09/02 08:02:57;;;;;;;4.65;3.17;;;;;;;16.90;86.95;96252.72;5036370;28;20205;-68
2022/09/02 08:05:24;;;;;;;6.25;2.97;;;;;;;17.04;87.03;96247.06;5037820;28;20233;-70
2022/09/02 08:07:51;;;;;;;5.45;3.25;;;;;;;17.21;89.45;96254.31;5036919;28;20205;-68
2022/09/02 08:10:19;;;;;;;4.63;2.97;;;;;;;17.48;87.33;96252.28;5036857;28;20209;-69
2022/09/02 08:12:47;;;;;;;5.50;3.10;;;;;;;17.74;86.90;96250.16;5036043;28;20236;-68
2022/09/02 08:15:16;;;;;;;4.25;2.90;;;;;;;17.63;84.53;96250.06;5037428;28;20206;-70
2022/09/02 08:17:43;;;;;;;5.95;2.90;;;;;;;17.76;83.51;96251.56;5034610;28;20238;-69
2022/09/02 08:20:12;;;;;;;3.25;2.60;;;;;;;17.94;83.18;96234.78;5035749;28;20468;-70
2022/09/02 08:22:38;;;;;;;4.70;2.88;;;;;;;17.80;82.28;96242.09;5032901;28;20202;-68
2022/09/02 08:25:06;;;;;;;5.55;2.80;;;;;;;18.04;83.61;96237.75;5035873;28;20209;-70
2022/09/02 08:27:33;;;;;;;5.25;2.40;;;;;;;18.13;80.48;96239.06;5036334;28;20209;-69
2022/09/02 08:30:00;;;;;;;3.30;2.70;;;;;;;18.13;81.29;96244.41;5035009;28;20209;-67
2022/09/02 08:32:31;;;;;;;3.72;2.35;;;;;;;17.98;79.25;96238.63;5034834;28;20293;-69
2022/09/02 08:34:58;;;;;;;5.97;2.55;;;;;;;17.94;79.75;96234.78;5033645;28;20206;-70
2022/09/02 08:37:24;;;;;;;5.18;2.40;;;;;;;18.04;78.61;96240.41;5033781;28;20232;-67
2022/09/02 08:39:51;;;;;;;5.88;2.28;;;;;;;18.08;77.49;96236.25;5033565;28;20210;-68
2022/09/02 08:42:22;;;;;;;2.47;2.28;;;;;;;18.48;79.76;96238.22;5033203;28;20205;-67
2022/09/02 08:44:53;;;;;;;3.40;2.33;;;;;;;18.53;77.12;96225.88;5035971;28;20209;-69
2022/09/02 08:47:23;;;;;;;6.18;2.88;;;;;;;18.48;76.58;96228.41;5037112;28;20228;-69
2022/09/02 08:49:57;;;;;;;3.25;2.25;;;;;;;18.84;77.93;96228.28;5037043;28;20224;-69
2022/09/02 08:52:31;;;;;;;4.45;2.15;;;;;;;19.01;76.51;96231.94;5036227;28;20213;-68
2022/09/02 08:54:57;;;;;;;4.22;2.45;;;;;;;18.98;74.77;96232.41;5036600;28;20235;-69
2022/09/02 08:57:26;;;;;;;3.55;2.25;;;;;;;18.93;73.18;96227.72;5036668;28;20260;-70
2022/09/02 08:59:54;;;;;;;2.80;1.77;;;;;;;18.96;70.78;96235.31;5036465;28;20205;-69
2022/09/02 09:02:26;;;;;;;4.00;2.00;;;;;;;19.02;70.36;96229.03;5035900;28;20213;-67
2022/09/02 09:05:06;;;;;;;7.30;2.35;;;;;;;19.33;69.59;96228.75;5037080;28;20201;-70
2022/09/02 09:07:37;;;;;;;3.17;1.98;;;;;;;19.47;66.88;96232.03;5036068;28;20209;-70
2022/09/02 09:10:16;;;;;;;3.38;1.95;;;;;;;19.54;71.27;96216.69;5035331;28;20205;-70
2022/09/02 09:13:00;;;;;;;2.10;1.80;;;;;;;19.67;68.73;96218.06;5036122;28;20212;-68
2022/09/02 09:15:33;;;;;;;1.60;1.50;;;;;;;19.83;68.75;96217.38;5037014;28;20227;-70
2022/09/02 09:18:01;;;;;;;3.45;1.60;;;;;;;19.74;68.40;96213.44;5035476;28;20209;-70
2022/09/02 09:20:32;;;;;;;6.47;1.70;;;;;;;19.81;65.13;96216.00;5035728;28;20205;-70
2022/09/02 09:23:01;;;;;;;4.05;1.67;;;;;;;20.21;67.91;96215.84;5034944;28;20216;-69
2022/09/02 09:25:29;;;;;;;2.85;1.70;;;;;;;20.28;65.77;96213.03;5036620;28;20229;-69
2022/09/02 09:27:56;;;;;;;4.20;1.40;;;;;;;20.17;61.43;96213.84;5036985;28;20722;-70
2022/09/02 09:30:23;;;;;;;3.17;1.30;;;;;;;20.08;61.81;96212.59;5036764;28;20275;-70
2022/09/02 09:32:53;;;;;;;1.88;1.40;;;;;;;20.10;61.07;96209.69;5034405;28;20263;-69
2022/09/02 09:35:20;;;;;;;4.78;1.52;;;;;;;20.27;60.90;96204.16;5037044;28;20207;-70
2022/09/02 09:37:49;;;;;;;5.32;1.55;;;;;;;20.08;58.33;96209.91;5036467;28;20205;-70
2022/09/02 09:40:37;;;;;;;4.78;1.30;;;;;;;20.13;59.89;96207.34;5036224;28;20216;-69
2022/09/02 09:43:13;;;;;;;2.15;1.55;;;;;;;20.35;59.11;96208.34;5029113;28;20205;-69
2022/09/02 09:45:41;;;;;;;2.85;1.40;;;;;;;20.33;59.50;96203.22;5034906;28;20220;-70
2022/09/02 09:48:26;;;;;;;2.28;1.50;;;;;;;20.67;59.94;96206.81;5035609;28;20332;-70
2022/09/02 09:51:15;;;;;;;2.33;1.40;;;;;;;20.82;59.41;96199.09;5034404;28;20509;-68
2022/09/02 09:53:45;;;;;;;2.25;1.30;;;;;;;20.70;58.95;96201.81;5032915;28;20652;-69
2022/09/02 09:56:38;;;;;;;5.35;1.13;;;;;;;20.68;58.85;96201.22;5034243;28;20225;-67
2022/09/02 09:59:09;;;;;;;1.63;1.23;;;;;;;20.82;57.23;96191.84;4998533;28;20205;-69
2022/09/02 10:01:36;;;;;;;4.57;1.60;;;;;;;20.75;57.16;96198.41;5034997;28;20201;-69
2022/09/02 10:04:07;;;;;;;1.27;1.17;;;;;;;20.78;57.93;96197.97;5033145;28;20328;-70
2022/09/02 10:06:39;;;;;;;1.77;1.20;;;;;;;20.89;58.43;96197.91;5033441;28;20221;-69
2022/09/02 10:09:28;;;;;;;2.83;1.25;;;;;;;20.83;60.00;96196.97;5032349;28;20223;-69
2022/09/02 10:11:56;;;;;;;1.63;1.15;;;;;;;20.91;58.74;96201.13;5034570;28;20205;-68
2022/09/02 10:14:23;;;;;;;1.63;1.35;;;;;;;20.97;57.37;96192.94;5033004;28;20224;-68
2022/09/02 10:16:56;;;;;;;2.47;1.35;;;;;;;21.27;54.71;96184.59;5033624;28;20221;-69
2022/09/02 10:19:29;;;;;;;1.48;1.20;;;;;;;21.48;54.71;96185.47;5034875;28;20201;-69
2022/09/02 10:22:13;;;;;;;2.05;1.15;;;;;;;21.67;55.35;96176.13;5033275;28;20232;-69
2022/09/02 10:25:00;;;;;;;1.27;1.08;;;;;;;21.53;56.56;96182.91;5033850;28;20201;-71
2022/09/02 10:27:37;;;;;;;3.90;1.10;;;;;;;21.58;55.25;96179.50;5035319;28;20229;-71
2022/09/02 10:30:08;;;;;;;3.03;1.30;;;;;;;21.64;52.23;96178.50;5035045;28;20212;-69
2022/09/02 10:32:58;;;;;;;2.50;1.10;;;;;;;21.72;53.76;96173.53;5033853;28;20201;-69
2022/09/02 10:35:32;;;;;;;2.05;1.20;;;;;;;21.69;54.22;96181.25;5035093;28;20225;-69
2022/09/02 10:38:09;;;;;;;2.10;1.10;;;;;;;21.92;53.37;96172.97;5032412;28;20216;-69
2022/09/02 10:40:43;;;;;;;2.15;1.33;;;;;;;21.99;55.67;96174.44;5035013;28;20205;-69
2022/09/02 10:43:17;;;;;;;2.60;1.08;;;;;;;21.74;50.88;96176.78;5036053;28;20208;-69
2022/09/02 10:45:46;;;;;;;1.63;1.02;;;;;;;21.50;50.21;96174.53;5037275;28;20221;-68
2022/09/02 10:48:28;;;;;;;1.52;1.13;;;;;;;21.64;50.87;96167.78;5038151;28;20302;-68
2022/09/02 10:51:01;;;;;;;2.13;1.02;;;;;;;22.04;53.35;96158.38;5039056;28;20216;-69
2022/09/02 10:53:36;;;;;;;1.70;1.10;;;;;;;22.16;55.69;96159.91;5037756;28;20209;-69
2022/09/02 10:56:07;;;;;;;2.55;1.13;;;;;;;22.15;50.56;96147.53;5037205;28;20229;-69
2022/09/02 10:58:43;;;;;;;1.75;0.93;;;;;;;22.21;50.16;96151.91;5036758;28;20649;-69
2022/09/02 11:01:16;;;;;;;1.75;1.17;;;;;;;22.01;51.05;96147.34;5033697;28;20201;-69
2022/09/02 11:03:48;;;;;;;1.25;0.90;;;;;;;22.08;50.09;96144.25;5037153;28;20767;-69
2022/09/02 11:06:20;;;;;;;1.50;1.10;;;;;;;21.93;49.74;96140.56;5035672;28;21229;-69
2022/09/02 11:08:51;;;;;;;2.00;1.10;;;;;;;22.15;51.27;96136.78;5035709;28;20212;-69
2022/09/02 11:11:24;;;;;;;1.08;0.93;;;;;;;22.19;49.39;96148.66;5039433;28;20212;-69
2022/09/02 11:14:00;;;;;;;1.30;0.88;;;;;;;22.41;51.81;96141.41;5038356;28;20224;-69
2022/09/02 11:16:33;;;;;;;1.20;1.00;;;;;;;22.36;49.65;96133.28;5038820;28;20224;-69
2022/09/02 11:19:06;;;;;;;1.52;1.10;;;;;;;22.19;47.99;96135.22;5038741;28;20197;-68
2022/09/02 11:21:47;;;;;;;2.83;1.20;;;;;;;22.58;50.11;96131.41;5039409;28;20216;-69
2022/09/02 11:24:18;;;;;;;1.77;1.30;;;;;;;22.39;47.38;96132.81;5037238;28;20201;-69
2022/09/02 11:26:53;;;;;;;2.15;1.30;;;;;;;22.34;48.54;96132.75;5037712;28;20221;-69
2022/09/02 11:29:26;;;;;;;2.08;0.95;;;;;;;22.30;49.60;96126.28;5038432;28;20209;-69
2022/09/02 11:32:02;;;;;;;2.55;1.00;;;;;;;22.70;49.52;96124.00;5038653;28;20685;-69
2022/09/02 11:34:36;;;;;;;1.63;0.95;;;;;;;22.89;48.96;96117.19;5038043;28;20586;-69
2022/09/02 11:37:04;;;;;;;1.67;1.20;;;;;;;22.64;49.11;96125.00;5038708;28;20233;-69
2022/09/02 11:39:36;;;;;;;1.40;0.98;;;;;;;22.68;48.72;96123.41;5038799;28;20212;-69
2022/09/02 11:42:17;;;;;;;2.95;1.30;;;;;;;22.70;47.78;96124.78;5038037;28;20574;-69